Etusivu
METAR-TAF:

METAR-TAF

Lentoasemat :

Sundsvall-Timrån lentoasema

Sundsvall-Härnösand, Ruotsi

Leveyspiiri: 62-32N, Pituuspiiri: 017-27E, korkeus merenpinnasta: 4 m

Tämänhetkinen sää

Tämä raportti tehtiin 35 minuuttia sitten, kello 15.20 UTC
Tuuli 9 kn kaakosta
Lämpötila 22°C
Kosteus 65%
Ilmanpaine 1010 hPa
Näkyvyys 10 km tai enemmän
ei pilviä alle 1500 m:ssä eikä cumulonimbus-pilviä

METAR: ESNN 231520Z 14009KT CAVOK 22/15 Q1010

Aika: 17:55 (15:55 UTC)

Sääennuste

Tämä raportti tehtiin 1 tunti ja 25 minuuttia sitten, kello 14.30 UTC
Ennuste voimassa 23. päivästä klo 15 UTC - 23. päivään klo 24 UTC
Tuuli 10 kn kaakosta
Näkyvyys 10 km tai enemmän
ei pilviä alle 1500 m:ssä eikä cumulonimbus-pilviä
Tulossa
23. päivästä klo 19 UTC - 23. päivään klo 21 UTC
Tuuli 3 kn eri suunnista

TAF: ESNN 231430Z 2315/2324 14010KT CAVOK BECMG 2319/2321 VRB03KT

Säähavainnot ja -ennusteet yli 4000 lentoasemalta (METAR- ja TAF-raportit).

Käytössä olevat sääasemat on merkitty karttaan keltaisilla ja punaisilla pisteillä.

Aseta hiiri pisteen päälle nähdäksesi sääaseman nimen.

Klikkaa sitten nähdäksesi säähavainnot ja -ennusteet.

Kartan vaihtaminen: klikkaa mustalla rastilla varustettuja vihreitä pisteitä, niin voit zoomata sisään; viivalla varustettua vihreää pistettä, niin voit zoomata ulos tai vihreitä nuolia, niin pääset viereisille kartoille.


METAR-TAF: